sensor_id;sensor_type;location;lat;lon;timestamp;temperature;humidity
7296;DHT22;40758;54.038;11.684;2022-12-19T00:00:44;-2.60;99.90
7296;DHT22;40758;54.038;11.684;2022-12-19T00:03:14;-2.60;99.90
7296;DHT22;40758;54.038;11.684;2022-12-19T00:06:01;-2.70;99.90
7296;DHT22;40758;54.038;11.684;2022-12-19T00:08:40;-2.70;99.90
7296;DHT22;40758;54.038;11.684;2022-12-19T00:11:49;-2.80;99.90
7296;DHT22;40758;54.038;11.684;2022-12-19T00:14:29;-2.90;99.90
7296;DHT22;40758;54.038;11.684;2022-12-19T00:17:05;-2.90;99.90
7296;DHT22;40758;54.038;11.684;2022-12-19T00:19:37;-2.90;99.90
7296;DHT22;40758;54.038;11.684;2022-12-19T00:22:23;-3.00;99.90
7296;DHT22;40758;54.038;11.684;2022-12-19T00:25:01;-2.90;99.90
7296;DHT22;40758;54.038;11.684;2022-12-19T00:27:42;-2.90;99.90
7296;DHT22;40758;54.038;11.684;2022-12-19T00:30:17;-2.80;99.90
7296;DHT22;40758;54.038;11.684;2022-12-19T00:32:56;-2.70;99.90
7296;DHT22;40758;54.038;11.684;2022-12-19T00:35:38;-2.70;99.90
7296;DHT22;40758;54.038;11.684;2022-12-19T00:38:10;-2.80;99.90
7296;DHT22;40758;54.038;11.684;2022-12-19T00:40:39;-2.80;99.90
7296;DHT22;40758;54.038;11.684;2022-12-19T00:43:08;-2.80;99.90
7296;DHT22;40758;54.038;11.684;2022-12-19T00:45:37;-2.80;99.90
7296;DHT22;40758;54.038;11.684;2022-12-19T00:48:08;-2.80;99.90
7296;DHT22;40758;54.038;11.684;2022-12-19T00:50:39;-2.80;99.90
7296;DHT22;40758;54.038;11.684;2022-12-19T00:53:08;-2.80;99.90
7296;DHT22;40758;54.038;11.684;2022-12-19T00:55:37;-2.80;99.90
7296;DHT22;40758;54.038;11.684;2022-12-19T00:58:07;-2.70;99.90
7296;DHT22;40758;54.038;11.684;2022-12-19T01:00:36;-2.70;99.90
7296;DHT22;40758;54.038;11.684;2022-12-19T01:03:07;-2.60;99.90
7296;DHT22;40758;54.038;11.684;2022-12-19T01:05:40;-2.60;99.90
7296;DHT22;40758;54.038;11.684;2022-12-19T01:08:09;-2.50;99.90
7296;DHT22;40758;54.038;11.684;2022-12-19T01:10:44;-2.50;99.90
7296;DHT22;40758;54.038;11.684;2022-12-19T01:13:29;-2.50;99.90
7296;DHT22;40758;54.038;11.684;2022-12-19T01:16:01;-2.50;99.90
7296;DHT22;40758;54.038;11.684;2022-12-19T01:18:32;-2.50;99.90
7296;DHT22;40758;54.038;11.684;2022-12-19T01:21:04;-2.50;99.90
7296;DHT22;40758;54.038;11.684;2022-12-19T01:23:35;-2.60;99.90
7296;DHT22;40758;54.038;11.684;2022-12-19T01:26:04;-2.60;99.90
7296;DHT22;40758;54.038;11.684;2022-12-19T01:28:33;-2.60;99.90
7296;DHT22;40758;54.038;11.684;2022-12-19T01:31:05;-2.60;99.90
7296;DHT22;40758;54.038;11.684;2022-12-19T01:33:41;-2.60;99.90
7296;DHT22;40758;54.038;11.684;2022-12-19T01:36:15;-2.60;99.90
7296;DHT22;40758;54.038;11.684;2022-12-19T01:38:47;-2.60;99.90
7296;DHT22;40758;54.038;11.684;2022-12-19T01:41:21;-2.70;99.90
7296;DHT22;40758;54.038;11.684;2022-12-19T01:43:57;-2.70;99.90
7296;DHT22;40758;54.038;11.684;2022-12-19T01:46:31;-2.80;99.90
7296;DHT22;40758;54.038;11.684;2022-12-19T01:49:06;-2.80;99.90
7296;DHT22;40758;54.038;11.684;2022-12-19T01:51:45;-2.80;99.90
7296;DHT22;40758;54.038;11.684;2022-12-19T01:54:19;-2.80;99.90
7296;DHT22;40758;54.038;11.684;2022-12-19T01:56:52;-2.80;99.90
7296;DHT22;40758;54.038;11.684;2022-12-19T01:59:28;-2.70;99.90
7296;DHT22;40758;54.038;11.684;2022-12-19T02:02:10;-2.70;99.90
7296;DHT22;40758;54.038;11.684;2022-12-19T02:04:44;-2.80;99.90
7296;DHT22;40758;54.038;11.684;2022-12-19T02:07:15;-2.70;99.90
7296;DHT22;40758;54.038;11.684;2022-12-19T02:09:50;-2.80;99.90
7296;DHT22;40758;54.038;11.684;2022-12-19T02:12:25;-2.70;99.90
7296;DHT22;40758;54.038;11.684;2022-12-19T02:14:59;-2.70;99.90
7296;DHT22;40758;54.038;11.684;2022-12-19T02:17:38;-2.70;99.90
7296;DHT22;40758;54.038;11.684;2022-12-19T02:20:40;-2.70;99.90
7296;DHT22;40758;54.038;11.684;2022-12-19T02:23:55;-2.60;99.90
7296;DHT22;40758;54.038;11.684;2022-12-19T02:27:15;-2.60;99.90
7296;DHT22;40758;54.038;11.684;2022-12-19T02:30:11;-2.50;99.90
7296;DHT22;40758;54.038;11.684;2022-12-19T02:32:53;-2.50;99.90
7296;DHT22;40758;54.038;11.684;2022-12-19T02:35:34;-2.50;99.90
7296;DHT22;40758;54.038;11.684;2022-12-19T02:38:17;-2.40;99.90
7296;DHT22;40758;54.038;11.684;2022-12-19T02:41:04;-2.40;99.90
7296;DHT22;40758;54.038;11.684;2022-12-19T02:43:40;-2.40;99.90
7296;DHT22;40758;54.038;11.684;2022-12-19T02:46:29;-2.40;99.90
7296;DHT22;40758;54.038;11.684;2022-12-19T02:48:59;-2.40;99.90
7296;DHT22;40758;54.038;11.684;2022-12-19T02:51:30;-2.40;99.90
7296;DHT22;40758;54.038;11.684;2022-12-19T02:53:58;-2.30;99.90
7296;DHT22;40758;54.038;11.684;2022-12-19T02:56:42;-2.40;99.90
7296;DHT22;40758;54.038;11.684;2022-12-19T02:59:40;-2.40;99.90
7296;DHT22;40758;54.038;11.684;2022-12-19T03:02:35;-2.40;99.90
7296;DHT22;40758;54.038;11.684;2022-12-19T03:05:33;-2.40;99.90
7296;DHT22;40758;54.038;11.684;2022-12-19T03:08:15;-2.40;99.90
7296;DHT22;40758;54.038;11.684;2022-12-19T03:10:56;-2.40;99.90
7296;DHT22;40758;54.038;11.684;2022-12-19T03:13:29;-2.50;99.90
7296;DHT22;40758;54.038;11.684;2022-12-19T03:16:02;-2.50;99.90
7296;DHT22;40758;54.038;11.684;2022-12-19T03:18:35;-2.50;99.90
7296;DHT22;40758;54.038;11.684;2022-12-19T03:21:10;-2.50;99.90
7296;DHT22;40758;54.038;11.684;2022-12-19T03:23:44;-2.50;99.90
7296;DHT22;40758;54.038;11.684;2022-12-19T03:26:16;-2.50;99.90
7296;DHT22;40758;54.038;11.684;2022-12-19T03:28:49;-2.50;99.90
7296;DHT22;40758;54.038;11.684;2022-12-19T03:31:25;-2.50;99.90
7296;DHT22;40758;54.038;11.684;2022-12-19T03:33:58;-2.50;99.90
7296;DHT22;40758;54.038;11.684;2022-12-19T03:36:41;-2.40;99.90
7296;DHT22;40758;54.038;11.684;2022-12-19T03:39:14;-2.40;99.90
7296;DHT22;40758;54.038;11.684;2022-12-19T03:41:45;-2.40;99.90
7296;DHT22;40758;54.038;11.684;2022-12-19T03:44:36;-2.30;99.90
7296;DHT22;40758;54.038;11.684;2022-12-19T03:47:13;-2.30;99.90
7296;DHT22;40758;54.038;11.684;2022-12-19T03:49:47;-2.30;99.90
7296;DHT22;40758;54.038;11.684;2022-12-19T03:52:26;-2.30;99.90
7296;DHT22;40758;54.038;11.684;2022-12-19T03:55:12;-2.30;99.90
7296;DHT22;40758;54.038;11.684;2022-12-19T03:57:50;-2.20;99.90
7296;DHT22;40758;54.038;11.684;2022-12-19T04:00:26;-2.30;99.90
7296;DHT22;40758;54.038;11.684;2022-12-19T04:02:58;-2.20;99.90
7296;DHT22;40758;54.038;11.684;2022-12-19T04:05:28;-2.20;99.90
7296;DHT22;40758;54.038;11.684;2022-12-19T04:08:02;-2.10;99.90
7296;DHT22;40758;54.038;11.684;2022-12-19T04:10:38;-2.10;99.90
7296;DHT22;40758;54.038;11.684;2022-12-19T04:13:16;-2.10;99.90
7296;DHT22;40758;54.038;11.684;2022-12-19T04:15:52;-2.10;99.90
7296;DHT22;40758;54.038;11.684;2022-12-19T04:18:27;-2.10;99.90
7296;DHT22;40758;54.038;11.684;2022-12-19T04:21:00;-2.10;99.90
7296;DHT22;40758;54.038;11.684;2022-12-19T04:23:39;-2.00;99.90
7296;DHT22;40758;54.038;11.684;2022-12-19T04:26:18;-2.00;99.90
7296;DHT22;40758;54.038;11.684;2022-12-19T04:28:52;-2.00;99.90
7296;DHT22;40758;54.038;11.684;2022-12-19T04:31:26;-2.00;99.90
7296;DHT22;40758;54.038;11.684;2022-12-19T04:33:55;-2.00;99.90
7296;DHT22;40758;54.038;11.684;2022-12-19T04:36:27;-2.00;99.90
7296;DHT22;40758;54.038;11.684;2022-12-19T04:38:58;-2.00;99.90
7296;DHT22;40758;54.038;11.684;2022-12-19T04:41:27;-2.00;99.90
7296;DHT22;40758;54.038;11.684;2022-12-19T04:44:03;-2.00;99.90
7296;DHT22;40758;54.038;11.684;2022-12-19T04:46:32;-2.00;99.90
7296;DHT22;40758;54.038;11.684;2022-12-19T04:49:02;-2.00;99.90
7296;DHT22;40758;54.038;11.684;2022-12-19T04:51:31;-2.00;99.90
7296;DHT22;40758;54.038;11.684;2022-12-19T04:54:02;-1.90;99.90
7296;DHT22;40758;54.038;11.684;2022-12-19T04:56:33;-1.90;99.90
7296;DHT22;40758;54.038;11.684;2022-12-19T04:59:02;-1.90;99.90
7296;DHT22;40758;54.038;11.684;2022-12-19T05:01:31;-1.90;99.90
7296;DHT22;40758;54.038;11.684;2022-12-19T05:04:11;-1.90;99.90
7296;DHT22;40758;54.038;11.684;2022-12-19T05:06:40;-1.90;99.90
7296;DHT22;40758;54.038;11.684;2022-12-19T05:09:26;-1.90;99.90
7296;DHT22;40758;54.038;11.684;2022-12-19T05:12:04;-1.90;99.90
7296;DHT22;40758;54.038;11.684;2022-12-19T05:14:34;-1.90;99.90
7296;DHT22;40758;54.038;11.684;2022-12-19T05:17:04;-1.90;99.90
7296;DHT22;40758;54.038;11.684;2022-12-19T05:19:45;-1.90;99.90
7296;DHT22;40758;54.038;11.684;2022-12-19T05:22:14;-1.80;99.90
7296;DHT22;40758;54.038;11.684;2022-12-19T05:24:44;-1.80;99.90
7296;DHT22;40758;54.038;11.684;2022-12-19T05:27:13;-1.80;99.90
7296;DHT22;40758;54.038;11.684;2022-12-19T05:29:50;-1.80;99.90
7296;DHT22;40758;54.038;11.684;2022-12-19T05:32:24;-1.80;99.90
7296;DHT22;40758;54.038;11.684;2022-12-19T05:34:56;-1.70;99.90
7296;DHT22;40758;54.038;11.684;2022-12-19T05:37:32;-1.70;99.90
7296;DHT22;40758;54.038;11.684;2022-12-19T05:40:11;-1.70;99.90
7296;DHT22;40758;54.038;11.684;2022-12-19T05:42:42;-1.60;99.90
7296;DHT22;40758;54.038;11.684;2022-12-19T05:45:12;-1.60;99.90
7296;DHT22;40758;54.038;11.684;2022-12-19T05:47:40;-1.60;99.90
7296;DHT22;40758;54.038;11.684;2022-12-19T05:50:13;-1.60;99.90
7296;DHT22;40758;54.038;11.684;2022-12-19T05:52:43;-1.60;99.90
7296;DHT22;40758;54.038;11.684;2022-12-19T05:55:13;-1.60;99.90
7296;DHT22;40758;54.038;11.684;2022-12-19T05:57:45;-1.50;99.90
7296;DHT22;40758;54.038;11.684;2022-12-19T06:00:14;-1.50;99.90
7296;DHT22;40758;54.038;11.684;2022-12-19T06:02:45;-1.50;99.90
7296;DHT22;40758;54.038;11.684;2022-12-19T06:05:17;-1.50;99.90
7296;DHT22;40758;54.038;11.684;2022-12-19T06:07:46;-1.40;99.90
7296;DHT22;40758;54.038;11.684;2022-12-19T06:10:16;-1.40;99.90
7296;DHT22;40758;54.038;11.684;2022-12-19T06:12:45;-1.40;99.90
7296;DHT22;40758;54.038;11.684;2022-12-19T06:15:15;-1.40;99.90
7296;DHT22;40758;54.038;11.684;2022-12-19T06:17:58;-1.30;99.90
7296;DHT22;40758;54.038;11.684;2022-12-19T06:20:29;-1.30;99.90
7296;DHT22;40758;54.038;11.684;2022-12-19T06:22:58;-1.30;99.90
7296;DHT22;40758;54.038;11.684;2022-12-19T06:25:29;-1.40;99.90
7296;DHT22;40758;54.038;11.684;2022-12-19T06:27:58;-1.40;99.90
7296;DHT22;40758;54.038;11.684;2022-12-19T06:30:30;-1.40;99.90
7296;DHT22;40758;54.038;11.684;2022-12-19T06:32:59;-1.40;99.90
7296;DHT22;40758;54.038;11.684;2022-12-19T06:35:28;-1.40;99.90
7296;DHT22;40758;54.038;11.684;2022-12-19T06:37:58;-1.40;99.90
7296;DHT22;40758;54.038;11.684;2022-12-19T06:40:29;-1.40;99.90
7296;DHT22;40758;54.038;11.684;2022-12-19T06:43:12;-1.40;99.90
7296;DHT22;40758;54.038;11.684;2022-12-19T06:45:44;-1.40;99.90
7296;DHT22;40758;54.038;11.684;2022-12-19T06:48:15;-1.40;99.90
7296;DHT22;40758;54.038;11.684;2022-12-19T06:50:44;-1.40;99.90
7296;DHT22;40758;54.038;11.684;2022-12-19T06:53:13;-1.30;99.90
7296;DHT22;40758;54.038;11.684;2022-12-19T06:55:59;-1.30;99.90
7296;DHT22;40758;54.038;11.684;2022-12-19T06:58:27;-1.30;99.90
7296;DHT22;40758;54.038;11.684;2022-12-19T07:00:56;-1.20;99.90
7296;DHT22;40758;54.038;11.684;2022-12-19T07:03:37;-1.20;99.90
7296;DHT22;40758;54.038;11.684;2022-12-19T07:06:09;-1.20;99.90
7296;DHT22;40758;54.038;11.684;2022-12-19T07:08:38;-1.20;99.90
7296;DHT22;40758;54.038;11.684;2022-12-19T07:11:08;-1.10;99.90
7296;DHT22;40758;54.038;11.684;2022-12-19T07:13:40;-1.20;99.90
7296;DHT22;40758;54.038;11.684;2022-12-19T07:16:09;-1.10;99.90
7296;DHT22;40758;54.038;11.684;2022-12-19T07:18:41;-1.10;99.90
7296;DHT22;40758;54.038;11.684;2022-12-19T07:21:14;-1.10;99.90
7296;DHT22;40758;54.038;11.684;2022-12-19T07:23:44;-1.10;99.90
7296;DHT22;40758;54.038;11.684;2022-12-19T07:26:15;-1.00;99.90
7296;DHT22;40758;54.038;11.684;2022-12-19T07:28:44;-1.10;99.90
7296;DHT22;40758;54.038;11.684;2022-12-19T07:31:16;-1.10;99.90
7296;DHT22;40758;54.038;11.684;2022-12-19T07:33:45;-1.10;99.90
7296;DHT22;40758;54.038;11.684;2022-12-19T07:36:14;-1.00;99.90
7296;DHT22;40758;54.038;11.684;2022-12-19T07:38:43;-1.10;99.90
7296;DHT22;40758;54.038;11.684;2022-12-19T07:41:12;-1.10;99.90
7296;DHT22;40758;54.038;11.684;2022-12-19T07:43:42;-1.00;99.90
7296;DHT22;40758;54.038;11.684;2022-12-19T07:46:17;-1.00;99.90
7296;DHT22;40758;54.038;11.684;2022-12-19T07:48:48;-1.00;99.90
7296;DHT22;40758;54.038;11.684;2022-12-19T07:51:17;-1.00;99.90
7296;DHT22;40758;54.038;11.684;2022-12-19T07:53:50;-0.90;99.90
7296;DHT22;40758;54.038;11.684;2022-12-19T07:56:22;-0.90;99.90
7296;DHT22;40758;54.038;11.684;2022-12-19T07:58:57;-0.90;99.90
7296;DHT22;40758;54.038;11.684;2022-12-19T08:01:26;-0.90;99.90
7296;DHT22;40758;54.038;11.684;2022-12-19T08:03:55;-0.90;99.90
7296;DHT22;40758;54.038;11.684;2022-12-19T08:06:26;-0.80;99.90
7296;DHT22;40758;54.038;11.684;2022-12-19T08:08:57;-0.80;99.90
7296;DHT22;40758;54.038;11.684;2022-12-19T08:11:26;-0.80;99.90
7296;DHT22;40758;54.038;11.684;2022-12-19T08:14:03;-0.80;99.90
7296;DHT22;40758;54.038;11.684;2022-12-19T08:16:34;-0.70;99.90
7296;DHT22;40758;54.038;11.684;2022-12-19T08:19:26;-0.70;99.90
7296;DHT22;40758;54.038;11.684;2022-12-19T08:21:55;-0.60;99.90
7296;DHT22;40758;54.038;11.684;2022-12-19T08:24:27;-0.70;99.90
7296;DHT22;40758;54.038;11.684;2022-12-19T08:26:58;-0.60;99.90
7296;DHT22;40758;54.038;11.684;2022-12-19T08:29:28;-0.60;99.90
7296;DHT22;40758;54.038;11.684;2022-12-19T08:31:57;-0.60;99.90
7296;DHT22;40758;54.038;11.684;2022-12-19T08:34:26;-0.50;99.90
7296;DHT22;40758;54.038;11.684;2022-12-19T08:36:58;-0.50;99.90
7296;DHT22;40758;54.038;11.684;2022-12-19T08:39:27;-0.40;99.90
7296;DHT22;40758;54.038;11.684;2022-12-19T08:41:58;-0.40;99.90
7296;DHT22;40758;54.038;11.684;2022-12-19T08:44:28;-0.30;99.90
7296;DHT22;40758;54.038;11.684;2022-12-19T08:46:57;-0.30;99.90
7296;DHT22;40758;54.038;11.684;2022-12-19T08:49:26;-0.30;99.90
7296;DHT22;40758;54.038;11.684;2022-12-19T08:51:58;-0.30;99.90
7296;DHT22;40758;54.038;11.684;2022-12-19T08:54:27;-0.20;99.90
7296;DHT22;40758;54.038;11.684;2022-12-19T08:56:56;-0.20;99.90
7296;DHT22;40758;54.038;11.684;2022-12-19T08:59:27;-0.10;99.90
7296;DHT22;40758;54.038;11.684;2022-12-19T09:01:59;-0.10;99.90
7296;DHT22;40758;54.038;11.684;2022-12-19T09:04:28;0.00;99.90
7296;DHT22;40758;54.038;11.684;2022-12-19T09:07:17;0.00;99.90
7296;DHT22;40758;54.038;11.684;2022-12-19T09:09:46;0.10;99.90
7296;DHT22;40758;54.038;11.684;2022-12-19T09:12:15;0.10;99.90
7296;DHT22;40758;54.038;11.684;2022-12-19T09:14:46;0.20;99.90
7296;DHT22;40758;54.038;11.684;2022-12-19T09:17:15;0.30;99.90
7296;DHT22;40758;54.038;11.684;2022-12-19T09:19:44;0.30;99.90
7296;DHT22;40758;54.038;11.684;2022-12-19T09:22:14;0.30;99.90
7296;DHT22;40758;54.038;11.684;2022-12-19T09:24:44;0.30;99.90
7296;DHT22;40758;54.038;11.684;2022-12-19T09:27:16;0.40;99.90
7296;DHT22;40758;54.038;11.684;2022-12-19T09:29:46;0.40;99.90
7296;DHT22;40758;54.038;11.684;2022-12-19T09:32:17;0.40;99.90
7296;DHT22;40758;54.038;11.684;2022-12-19T09:34:46;0.50;99.90
7296;DHT22;40758;54.038;11.684;2022-12-19T09:37:15;0.50;99.90
7296;DHT22;40758;54.038;11.684;2022-12-19T09:39:45;0.50;99.90
7296;DHT22;40758;54.038;11.684;2022-12-19T09:42:31;0.40;99.90
7296;DHT22;40758;54.038;11.684;2022-12-19T09:45:28;0.40;99.90
7296;DHT22;40758;54.038;11.684;2022-12-19T09:48:20;0.50;99.90
7296;DHT22;40758;54.038;11.684;2022-12-19T09:50:58;0.50;99.90
7296;DHT22;40758;54.038;11.684;2022-12-19T09:53:43;0.50;99.90
7296;DHT22;40758;54.038;11.684;2022-12-19T09:56:33;0.60;99.90
7296;DHT22;40758;54.038;11.684;2022-12-19T09:59:23;0.60;99.90
7296;DHT22;40758;54.038;11.684;2022-12-19T10:02:29;0.60;99.90
7296;DHT22;40758;54.038;11.684;2022-12-19T10:05:25;0.60;99.90
7296;DHT22;40758;54.038;11.684;2022-12-19T10:08:29;0.60;99.90
7296;DHT22;40758;54.038;11.684;2022-12-19T10:11:33;0.60;99.90
7296;DHT22;40758;54.038;11.684;2022-12-19T10:14:50;0.70;99.90
7296;DHT22;40758;54.038;11.684;2022-12-19T10:18:02;0.70;99.90
7296;DHT22;40758;54.038;11.684;2022-12-19T10:20:46;0.80;99.90
7296;DHT22;40758;54.038;11.684;2022-12-19T10:23:47;0.80;99.90
7296;DHT22;40758;54.038;11.684;2022-12-19T10:26:33;0.90;99.90
7296;DHT22;40758;54.038;11.684;2022-12-19T10:29:43;1.00;99.90
7296;DHT22;40758;54.038;11.684;2022-12-19T10:32:47;1.00;99.90
7296;DHT22;40758;54.038;11.684;2022-12-19T10:35:32;1.10;99.90
7296;DHT22;40758;54.038;11.684;2022-12-19T10:38:15;1.10;99.90
7296;DHT22;40758;54.038;11.684;2022-12-19T10:41:09;1.20;99.90
7296;DHT22;40758;54.038;11.684;2022-12-19T10:43:50;1.30;99.90
7296;DHT22;40758;54.038;11.684;2022-12-19T10:46:34;1.30;99.90
7296;DHT22;40758;54.038;11.684;2022-12-19T10:49:12;1.30;99.90
7296;DHT22;40758;54.038;11.684;2022-12-19T10:51:52;1.30;99.90
7296;DHT22;40758;54.038;11.684;2022-12-19T10:55:00;1.30;99.90
7296;DHT22;40758;54.038;11.684;2022-12-19T10:57:29;1.40;99.90
7296;DHT22;40758;54.038;11.684;2022-12-19T11:00:00;1.40;99.90
7296;DHT22;40758;54.038;11.684;2022-12-19T11:02:39;1.40;99.90
7296;DHT22;40758;54.038;11.684;2022-12-19T11:05:38;1.40;99.90
7296;DHT22;40758;54.038;11.684;2022-12-19T11:08:26;1.40;99.90
7296;DHT22;40758;54.038;11.684;2022-12-19T11:11:12;1.50;99.90
7296;DHT22;40758;54.038;11.684;2022-12-19T11:14:19;1.60;99.90
7296;DHT22;40758;54.038;11.684;2022-12-19T11:17:26;1.60;99.90
7296;DHT22;40758;54.038;11.684;2022-12-19T11:20:30;1.60;99.90
7296;DHT22;40758;54.038;11.684;2022-12-19T11:23:19;1.70;99.90
7296;DHT22;40758;54.038;11.684;2022-12-19T11:26:27;1.80;99.90
7296;DHT22;40758;54.038;11.684;2022-12-19T11:29:26;1.80;99.90
7296;DHT22;40758;54.038;11.684;2022-12-19T11:32:31;1.90;99.90
7296;DHT22;40758;54.038;11.684;2022-12-19T11:35:20;2.00;99.90
7296;DHT22;40758;54.038;11.684;2022-12-19T11:38:04;2.00;99.90
7296;DHT22;40758;54.038;11.684;2022-12-19T11:40:42;2.00;99.90
7296;DHT22;40758;54.038;11.684;2022-12-19T11:43:35;2.10;99.90
7296;DHT22;40758;54.038;11.684;2022-12-19T11:46:24;2.10;99.90
7296;DHT22;40758;54.038;11.684;2022-12-19T11:49:04;2.10;99.90
7296;DHT22;40758;54.038;11.684;2022-12-19T11:51:51;2.10;99.90
7296;DHT22;40758;54.038;11.684;2022-12-19T11:54:31;2.20;99.90
7296;DHT22;40758;54.038;11.684;2022-12-19T11:57:08;2.20;99.90
7296;DHT22;40758;54.038;11.684;2022-12-19T11:59:46;2.30;99.90
7296;DHT22;40758;54.038;11.684;2022-12-19T12:05:49;2.30;99.90
7296;DHT22;40758;54.038;11.684;2022-12-19T12:08:50;2.30;99.90
7296;DHT22;40758;54.038;11.684;2022-12-19T12:12:16;2.20;99.90
7296;DHT22;40758;54.038;11.684;2022-12-19T12:15:34;2.20;99.90
7296;DHT22;40758;54.038;11.684;2022-12-19T12:18:44;2.20;99.90
7296;DHT22;40758;54.038;11.684;2022-12-19T12:21:51;2.20;99.90
7296;DHT22;40758;54.038;11.684;2022-12-19T12:25:14;2.20;99.90
7296;DHT22;40758;54.038;11.684;2022-12-19T12:32:08;2.30;99.90
7296;DHT22;40758;54.038;11.684;2022-12-19T12:38:49;2.40;99.90
7296;DHT22;40758;54.038;11.684;2022-12-19T12:41:39;2.40;99.90
7296;DHT22;40758;54.038;11.684;2022-12-19T12:44:35;2.40;99.90
7296;DHT22;40758;54.038;11.684;2022-12-19T12:47:16;2.40;99.90
7296;DHT22;40758;54.038;11.684;2022-12-19T12:50:06;2.40;99.90
7296;DHT22;40758;54.038;11.684;2022-12-19T12:52:57;2.40;99.90
7296;DHT22;40758;54.038;11.684;2022-12-19T12:55:33;2.40;99.90
7296;DHT22;40758;54.038;11.684;2022-12-19T13:01:39;2.50;99.90
7296;DHT22;40758;54.038;11.684;2022-12-19T13:04:31;2.50;99.90
7296;DHT22;40758;54.038;11.684;2022-12-19T13:07:24;2.50;99.90
7296;DHT22;40758;54.038;11.684;2022-12-19T13:10:14;2.50;99.90
7296;DHT22;40758;54.038;11.684;2022-12-19T13:13:00;2.50;99.90
7296;DHT22;40758;54.038;11.684;2022-12-19T13:15:43;2.50;99.90
7296;DHT22;40758;54.038;11.684;2022-12-19T13:18:35;2.50;99.90
7296;DHT22;40758;54.038;11.684;2022-12-19T13:21:11;2.50;99.90
7296;DHT22;40758;54.038;11.684;2022-12-19T13:24:20;2.50;99.90
7296;DHT22;40758;54.038;11.684;2022-12-19T13:26:50;2.50;99.90
7296;DHT22;40758;54.038;11.684;2022-12-19T13:29:37;2.60;99.90
7296;DHT22;40758;54.038;11.684;2022-12-19T13:33:06;2.60;99.90
7296;DHT22;40758;54.038;11.684;2022-12-19T13:35:40;2.70;99.90
7296;DHT22;40758;54.038;11.684;2022-12-19T13:38:29;2.70;99.90
7296;DHT22;40758;54.038;11.684;2022-12-19T13:41:26;2.70;99.90
7296;DHT22;40758;54.038;11.684;2022-12-19T13:44:17;2.80;99.90
7296;DHT22;40758;54.038;11.684;2022-12-19T13:46:58;2.80;99.90
7296;DHT22;40758;54.038;11.684;2022-12-19T13:49:29;2.80;99.90
7296;DHT22;40758;54.038;11.684;2022-12-19T13:52:08;2.80;99.90
7296;DHT22;40758;54.038;11.684;2022-12-19T13:54:47;2.80;99.90
7296;DHT22;40758;54.038;11.684;2022-12-19T13:57:21;2.80;99.90
7296;DHT22;40758;54.038;11.684;2022-12-19T14:00:00;2.90;99.90
7296;DHT22;40758;54.038;11.684;2022-12-19T14:02:40;2.90;99.90
7296;DHT22;40758;54.038;11.684;2022-12-19T14:05:25;2.90;99.90
7296;DHT22;40758;54.038;11.684;2022-12-19T14:08:20;2.90;99.90
7296;DHT22;40758;54.038;11.684;2022-12-19T14:11:06;2.90;99.90
7296;DHT22;40758;54.038;11.684;2022-12-19T14:14:03;2.90;99.90
7296;DHT22;40758;54.038;11.684;2022-12-19T14:17:05;2.90;99.90
7296;DHT22;40758;54.038;11.684;2022-12-19T14:19:38;3.00;99.90
7296;DHT22;40758;54.038;11.684;2022-12-19T14:22:10;3.00;99.90
7296;DHT22;40758;54.038;11.684;2022-12-19T14:25:00;3.00;99.90
7296;DHT22;40758;54.038;11.684;2022-12-19T14:28:00;3.10;99.90
7296;DHT22;40758;54.038;11.684;2022-12-19T14:30:59;3.00;99.90
7296;DHT22;40758;54.038;11.684;2022-12-19T14:33:35;3.10;99.90
7296;DHT22;40758;54.038;11.684;2022-12-19T14:36:34;3.10;99.90
7296;DHT22;40758;54.038;11.684;2022-12-19T14:39:15;3.10;99.90
7296;DHT22;40758;54.038;11.684;2022-12-19T14:42:13;3.10;99.90
7296;DHT22;40758;54.038;11.684;2022-12-19T14:45:35;3.10;99.90
7296;DHT22;40758;54.038;11.684;2022-12-19T14:48:32;3.10;99.90
7296;DHT22;40758;54.038;11.684;2022-12-19T14:51:32;3.10;99.90
7296;DHT22;40758;54.038;11.684;2022-12-19T14:54:24;3.30;99.90
7296;DHT22;40758;54.038;11.684;2022-12-19T14:57:20;3.30;99.90
7296;DHT22;40758;54.038;11.684;2022-12-19T15:00:28;3.20;99.90
7296;DHT22;40758;54.038;11.684;2022-12-19T15:03:25;3.30;99.90
7296;DHT22;40758;54.038;11.684;2022-12-19T15:06:03;3.30;99.90
7296;DHT22;40758;54.038;11.684;2022-12-19T15:09:00;3.40;99.90
7296;DHT22;40758;54.038;11.684;2022-12-19T15:11:57;3.40;99.90
7296;DHT22;40758;54.038;11.684;2022-12-19T15:15:36;3.50;99.90
7296;DHT22;40758;54.038;11.684;2022-12-19T15:18:19;3.50;99.90
7296;DHT22;40758;54.038;11.684;2022-12-19T15:20:59;3.50;99.90
7296;DHT22;40758;54.038;11.684;2022-12-19T15:23:32;3.50;99.90
7296;DHT22;40758;54.038;11.684;2022-12-19T15:26:03;3.50;99.90
7296;DHT22;40758;54.038;11.684;2022-12-19T15:28:39;3.60;99.90
7296;DHT22;40758;54.038;11.684;2022-12-19T15:31:26;3.60;99.90
7296;DHT22;40758;54.038;11.684;2022-12-19T15:34:01;3.70;99.90
7296;DHT22;40758;54.038;11.684;2022-12-19T15:37:14;3.60;99.90
7296;DHT22;40758;54.038;11.684;2022-12-19T15:39:47;3.70;99.90
7296;DHT22;40758;54.038;11.684;2022-12-19T15:42:19;3.70;99.90
7296;DHT22;40758;54.038;11.684;2022-12-19T15:44:57;3.70;99.90
7296;DHT22;40758;54.038;11.684;2022-12-19T15:47:31;3.70;99.90
7296;DHT22;40758;54.038;11.684;2022-12-19T15:50:14;3.80;99.90
7296;DHT22;40758;54.038;11.684;2022-12-19T15:52:47;3.80;99.90
7296;DHT22;40758;54.038;11.684;2022-12-19T15:55:21;3.80;99.90
7296;DHT22;40758;54.038;11.684;2022-12-19T15:58:14;3.80;99.90
7296;DHT22;40758;54.038;11.684;2022-12-19T16:01:34;3.90;99.90
7296;DHT22;40758;54.038;11.684;2022-12-19T16:04:30;4.10;99.90
7296;DHT22;40758;54.038;11.684;2022-12-19T16:07:16;4.20;99.90
7296;DHT22;40758;54.038;11.684;2022-12-19T16:09:57;4.30;99.90
7296;DHT22;40758;54.038;11.684;2022-12-19T16:12:30;4.40;99.90
7296;DHT22;40758;54.038;11.684;2022-12-19T16:15:14;4.40;99.90
7296;DHT22;40758;54.038;11.684;2022-12-19T16:17:48;4.50;99.90
7296;DHT22;40758;54.038;11.684;2022-12-19T16:20:21;4.60;99.90
7296;DHT22;40758;54.038;11.684;2022-12-19T16:22:55;4.60;99.90
7296;DHT22;40758;54.038;11.684;2022-12-19T16:25:32;4.70;99.90
7296;DHT22;40758;54.038;11.684;2022-12-19T16:28:14;4.70;99.90
7296;DHT22;40758;54.038;11.684;2022-12-19T16:30:48;4.60;99.90
7296;DHT22;40758;54.038;11.684;2022-12-19T16:33:20;4.60;99.90
7296;DHT22;40758;54.038;11.684;2022-12-19T16:35:57;4.80;99.90
7296;DHT22;40758;54.038;11.684;2022-12-19T16:38:32;4.90;99.90
7296;DHT22;40758;54.038;11.684;2022-12-19T16:41:02;5.10;99.90
7296;DHT22;40758;54.038;11.684;2022-12-19T16:43:32;5.10;99.90
7296;DHT22;40758;54.038;11.684;2022-12-19T16:46:06;5.10;99.90
7296;DHT22;40758;54.038;11.684;2022-12-19T16:48:41;5.00;99.90
7296;DHT22;40758;54.038;11.684;2022-12-19T16:51:17;5.10;99.90
7296;DHT22;40758;54.038;11.684;2022-12-19T16:53:48;5.10;99.90
7296;DHT22;40758;54.038;11.684;2022-12-19T16:56:26;5.10;99.90
7296;DHT22;40758;54.038;11.684;2022-12-19T16:58:59;5.20;99.90
7296;DHT22;40758;54.038;11.684;2022-12-19T17:01:29;5.20;99.90
7296;DHT22;40758;54.038;11.684;2022-12-19T17:03:58;5.20;99.90
7296;DHT22;40758;54.038;11.684;2022-12-19T17:06:34;5.20;99.90
7296;DHT22;40758;54.038;11.684;2022-12-19T17:09:46;5.20;99.90
7296;DHT22;40758;54.038;11.684;2022-12-19T17:12:29;5.30;99.90